createdAt,value
2018-10-19T00:01:03.121Z,31.00
2018-10-19T00:03:30.893Z,29.87
2018-10-19T00:05:58.705Z,28.87
2018-10-19T00:08:26.492Z,29.17
2018-10-19T00:10:54.453Z,29.57
2018-10-19T00:13:22.320Z,28.10
2018-10-19T00:15:50.451Z,28.20
2018-10-19T00:18:18.198Z,28.63
2018-10-19T00:20:46.120Z,28.33
2018-10-19T00:23:13.919Z,28.63
2018-10-19T00:25:41.784Z,27.37
2018-10-19T00:28:09.580Z,27.70
2018-10-19T00:30:37.401Z,28.73
2018-10-19T00:33:05.286Z,26.23
2018-10-19T00:35:33.037Z,28.77
2018-10-19T00:38:00.822Z,28.43
2018-10-19T00:40:28.633Z,24.70
2018-10-19T00:42:56.438Z,25.47
2018-10-19T00:45:28.726Z,24.27
2018-10-19T00:47:56.514Z,25.67
2018-10-19T00:50:24.364Z,26.47
2018-10-19T00:52:52.294Z,27.60
2018-10-19T00:55:20.213Z,26.97
2018-10-19T00:57:48.001Z,27.07
2018-10-19T01:00:15.855Z,25.80
2018-10-19T01:02:43.646Z,25.87
2018-10-19T01:05:11.453Z,27.80
2018-10-19T01:07:39.328Z,29.33
2018-10-19T01:10:07.140Z,28.90
2018-10-19T01:12:34.932Z,26.40
2018-10-19T01:15:02.780Z,28.10
2018-10-19T01:17:30.549Z,26.33
2018-10-19T01:19:58.328Z,29.43
2018-10-19T01:22:26.117Z,28.07
2018-10-19T01:24:53.961Z,26.73
2018-10-19T01:27:21.955Z,30.30
2018-10-19T01:29:49.778Z,25.83
2018-10-19T01:32:17.610Z,27.23
2018-10-19T01:34:46.355Z,28.93
2018-10-19T01:37:14.176Z,28.77
2018-10-19T01:39:42.017Z,28.27
2018-10-19T01:42:09.878Z,32.50
2018-10-19T01:44:37.649Z,29.90
2018-10-19T01:47:05.490Z,29.33
2018-10-19T01:49:33.253Z,33.37
2018-10-19T01:52:01.023Z,32.33
2018-10-19T01:54:28.881Z,30.07
2018-10-19T01:56:56.733Z,32.00
2018-10-19T01:59:24.493Z,31.87
2018-10-19T02:01:52.381Z,29.73
2018-10-19T02:04:20.233Z,31.37
2018-10-19T02:06:48.017Z,30.50
2018-10-19T02:09:15.829Z,29.10
2018-10-19T02:11:43.641Z,30.20
2018-10-19T02:14:11.382Z,32.00
2018-10-19T02:16:39.201Z,31.30
2018-10-19T02:19:06.956Z,32.73
2018-10-19T02:21:34.723Z,34.23
2018-10-19T02:24:02.561Z,36.80
2018-10-19T02:26:30.429Z,31.03
2018-10-19T02:28:58.276Z,31.80
2018-10-19T02:31:26.063Z,33.83
2018-10-19T02:33:53.835Z,32.57
2018-10-19T02:36:21.656Z,33.10
2018-10-19T02:38:49.408Z,30.50
2018-10-19T02:41:17.302Z,31.83
2018-10-19T02:43:45.005Z,31.07
2018-10-19T02:46:12.809Z,31.10
2018-10-19T02:48:40.680Z,32.50
2018-10-19T02:51:08.542Z,32.73
2018-10-19T02:53:36.265Z,36.63
2018-10-19T02:56:04.218Z,36.47
2018-10-19T02:58:31.992Z,33.80
2018-10-19T03:00:59.828Z,34.30
2018-10-19T03:03:27.605Z,34.03
2018-10-19T03:05:55.427Z,32.23
2018-10-19T03:08:23.233Z,32.20
2018-10-19T03:10:51.009Z,31.20
2018-10-19T03:13:18.773Z,31.57
2018-10-19T03:15:46.604Z,30.33
2018-10-19T03:18:14.384Z,31.93
2018-10-19T03:20:42.157Z,32.97
2018-10-19T03:23:09.999Z,32.13
2018-10-19T03:25:37.754Z,41.87
2018-10-19T03:28:05.702Z,102.97
2018-10-19T03:30:33.532Z,64.20
2018-10-19T03:33:01.434Z,49.07
2018-10-19T03:35:29.364Z,42.20
2018-10-19T03:37:57.116Z,36.50
2018-10-19T03:40:24.877Z,34.80
2018-10-19T03:42:52.637Z,35.47
2018-10-19T03:45:20.437Z,34.17
2018-10-19T03:47:48.202Z,35.23
2018-10-19T03:50:15.988Z,34.53
2018-10-19T03:52:43.813Z,34.80
2018-10-19T03:55:11.625Z,42.70
2018-10-19T03:57:39.388Z,37.87
2018-10-19T04:00:07.225Z,35.23
2018-10-19T04:02:35.089Z,33.30
2018-10-19T04:05:03.009Z,33.50
2018-10-19T04:07:30.913Z,37.23
2018-10-19T04:09:58.750Z,33.43
2018-10-19T04:12:26.529Z,34.63
2018-10-19T04:14:54.296Z,34.10
2018-10-19T04:17:22.078Z,37.00
2018-10-19T04:19:49.848Z,33.30
2018-10-19T04:22:17.643Z,35.23
2018-10-19T04:24:45.401Z,33.30
2018-10-19T04:27:13.237Z,33.50
2018-10-19T04:29:41.136Z,33.80
2018-10-19T04:32:08.937Z,35.73
2018-10-19T04:34:36.720Z,33.70
2018-10-19T04:37:05.754Z,35.90
2018-10-19T04:39:34.049Z,37.57
2018-10-19T04:42:02.667Z,33.47
2018-10-19T04:44:30.461Z,33.03
2018-10-19T04:46:58.356Z,28.83
2018-10-19T04:49:26.371Z,29.43
2018-10-19T04:51:54.162Z,30.83
2018-10-19T04:54:22.128Z,28.67
2018-10-19T04:56:49.921Z,27.27
2018-10-19T04:59:17.979Z,28.80
2018-10-19T05:01:45.649Z,29.33
2018-10-19T05:04:13.425Z,28.33
2018-10-19T05:06:41.317Z,29.77
2018-10-19T05:09:10.789Z,27.50
2018-10-19T05:11:38.881Z,28.90
2018-10-19T05:14:07.066Z,28.83
2018-10-19T05:16:35.145Z,27.37
2018-10-19T05:19:03.311Z,30.60
2018-10-19T05:21:31.357Z,29.80
2018-10-19T05:23:59.221Z,28.50
2018-10-19T05:26:27.056Z,30.33
2018-10-19T05:28:54.891Z,33.83
2018-10-19T05:31:23.369Z,28.60
2018-10-19T05:33:52.001Z,30.90
2018-10-19T05:36:19.836Z,29.93
2018-10-19T05:38:47.821Z,31.37
2018-10-19T05:41:15.701Z,30.87
2018-10-19T05:43:43.632Z,30.57
2018-10-19T05:46:11.588Z,30.37
2018-10-19T05:48:39.793Z,29.97
2018-10-19T05:51:08.156Z,27.63
2018-10-19T05:53:36.712Z,32.70
2018-10-19T05:56:05.043Z,32.87
2018-10-19T05:58:32.812Z,29.90
2018-10-19T06:01:00.689Z,28.50
2018-10-19T06:03:28.517Z,29.93
2018-10-19T06:05:56.273Z,28.87
2018-10-19T06:08:24.042Z,27.63
2018-10-19T06:10:51.878Z,29.27
2018-10-19T06:13:19.696Z,30.30
2018-10-19T06:15:47.524Z,31.00
2018-10-19T06:18:15.330Z,31.30
2018-10-19T06:20:43.096Z,32.07
2018-10-19T06:23:11.031Z,35.73
2018-10-19T06:25:38.745Z,35.07
2018-10-19T06:28:06.573Z,30.90
2018-10-19T06:30:34.480Z,32.97
2018-10-19T06:33:02.448Z,29.20
2018-10-19T06:35:30.229Z,26.80
2018-10-19T06:37:58.123Z,25.97
2018-10-19T06:40:25.853Z,27.33
2018-10-19T06:42:53.647Z,26.93
2018-10-19T06:45:21.451Z,29.03
2018-10-19T06:47:49.205Z,26.57
2018-10-19T06:50:17.146Z,24.60
2018-10-19T06:52:44.899Z,26.00
2018-10-19T06:55:14.913Z,23.57
2018-10-19T06:57:42.726Z,22.33
2018-10-19T07:00:10.857Z,23.43
2018-10-19T07:02:38.654Z,22.03
2018-10-19T07:05:06.633Z,23.20
2018-10-19T07:07:34.460Z,22.77
2018-10-19T07:10:02.645Z,23.57
2018-10-19T07:12:30.438Z,22.50
2018-10-19T07:14:58.293Z,23.10
2018-10-19T07:17:26.169Z,21.10
2018-10-19T07:19:53.968Z,21.47
2018-10-19T07:22:21.748Z,22.60
2018-10-19T07:24:49.869Z,19.90
2018-10-19T07:27:17.661Z,19.03
2018-10-19T07:29:45.445Z,20.50
2018-10-19T07:32:13.321Z,19.07
2018-10-19T07:34:41.116Z,21.40
2018-10-19T07:37:09.200Z,21.80
2018-10-19T07:39:37.101Z,18.90
2018-10-19T07:42:05.060Z,18.07
2018-10-19T07:44:33.095Z,23.53
2018-10-19T07:47:00.997Z,19.27
2018-10-19T07:49:28.829Z,19.90
2018-10-19T07:51:56.730Z,20.97
2018-10-19T07:54:24.553Z,17.10
2018-10-19T07:56:52.365Z,17.80
2018-10-19T07:59:20.160Z,18.53
2018-10-19T08:01:47.975Z,20.13
2018-10-19T08:04:15.864Z,21.57
2018-10-19T08:06:45.193Z,20.57
2018-10-19T08:09:12.941Z,24.50
2018-10-19T08:11:40.802Z,23.97
2018-10-19T08:14:08.575Z,24.50
2018-10-19T08:16:36.356Z,27.17
2018-10-19T08:19:04.761Z,29.47
2018-10-19T08:21:32.721Z,27.70
2018-10-19T08:24:00.504Z,32.53
2018-10-19T08:26:28.351Z,33.83
2018-10-19T08:28:56.132Z,36.17
2018-10-19T08:31:23.916Z,39.90
2018-10-19T08:33:51.701Z,41.40
2018-10-19T08:36:19.484Z,46.40
2018-10-19T08:38:47.284Z,48.47
2018-10-19T08:41:15.077Z,51.40
2018-10-19T08:43:44.148Z,54.83
2018-10-19T08:46:17.421Z,55.93
2018-10-19T08:48:45.209Z,55.73
2018-10-19T08:51:13.048Z,53.57
2018-10-19T08:53:42.483Z,53.90
2018-10-19T08:56:10.266Z,55.27
2018-10-19T08:58:38.424Z,54.27
2018-10-19T09:01:06.388Z,56.20
2018-10-19T09:03:34.306Z,53.97
2018-10-19T09:06:02.383Z,54.37
2018-10-19T09:08:30.178Z,54.33
2018-10-19T09:10:58.059Z,55.97
2018-10-19T09:13:25.853Z,54.70
2018-10-19T09:15:53.724Z,61.73
2018-10-19T09:18:21.541Z,61.43
2018-10-19T09:20:49.508Z,55.47
2018-10-19T09:23:17.426Z,58.60
2018-10-19T09:25:45.200Z,58.10
2018-10-19T09:28:12.993Z,57.50
2018-10-19T09:30:40.881Z,57.73
2018-10-19T09:33:08.716Z,55.93
2018-10-19T09:35:36.541Z,60.70
2018-10-19T09:38:04.469Z,57.57
2018-10-19T09:40:32.329Z,58.90
2018-10-19T09:43:00.159Z,54.63
2018-10-19T09:45:27.869Z,57.00
2018-10-19T09:47:55.666Z,60.60
2018-10-19T09:50:23.428Z,57.70
2018-10-19T09:52:51.217Z,58.70
2018-10-19T09:55:19.114Z,60.47
2018-10-19T09:57:46.858Z,60.23
2018-10-19T10:00:21.495Z,56.20
2018-10-19T10:02:49.549Z,60.67
2018-10-19T10:05:17.674Z,58.17
2018-10-19T10:07:45.419Z,59.90
2018-10-19T10:10:13.205Z,62.63
2018-10-19T10:12:41.024Z,63.07
2018-10-19T10:15:09.033Z,62.03
2018-10-19T10:17:36.754Z,57.63
2018-10-19T10:20:05.161Z,62.13
2018-10-19T10:22:33.017Z,63.07
2018-10-19T10:25:00.779Z,59.27
2018-10-19T10:27:28.573Z,61.47
2018-10-19T10:29:56.391Z,60.20
2018-10-19T10:32:24.230Z,59.87
2018-10-19T10:34:52.429Z,61.30
2018-10-19T10:37:20.197Z,60.47
2018-10-19T10:39:48.025Z,60.33
2018-10-19T10:42:15.804Z,59.93
2018-10-19T10:44:45.298Z,58.73
2018-10-19T10:47:13.095Z,60.20
2018-10-19T10:49:45.607Z,59.00
2018-10-19T10:52:13.454Z,58.73
2018-10-19T10:54:43.245Z,55.90
2018-10-19T10:57:11.057Z,55.33
2018-10-19T10:59:39.033Z,56.73
2018-10-19T11:02:06.864Z,55.47
2018-10-19T11:04:34.748Z,55.90
2018-10-19T11:07:02.659Z,56.30
2018-10-19T11:09:30.425Z,54.83
2018-10-19T11:11:58.217Z,57.93
2018-10-19T11:14:26.297Z,58.43
2018-10-19T11:16:54.362Z,57.47
2018-10-19T11:19:22.142Z,54.53
2018-10-19T11:21:49.929Z,55.40
2018-10-19T11:24:17.743Z,57.60
2018-10-19T11:26:45.568Z,58.67
2018-10-19T11:29:13.365Z,60.33
2018-10-19T11:31:41.206Z,62.27
2018-10-19T11:34:09.076Z,60.63
2018-10-19T11:36:36.955Z,59.73
2018-10-19T11:39:06.253Z,58.53
2018-10-19T11:41:34.518Z,62.87
2018-10-19T11:44:02.321Z,63.03
2018-10-19T11:46:30.121Z,58.30
2018-10-19T11:48:57.981Z,58.70
2018-10-19T11:51:25.743Z,57.07
2018-10-19T11:53:53.533Z,60.43
2018-10-19T11:56:21.377Z,59.17
2018-10-19T11:58:49.190Z,60.57
2018-10-19T12:01:17.401Z,57.30
2018-10-19T12:03:45.267Z,57.77
2018-10-19T12:06:12.993Z,61.33
2018-10-19T12:08:40.837Z,60.50
2018-10-19T12:11:08.698Z,58.83
2018-10-19T12:13:36.665Z,59.73
2018-10-19T12:16:05.474Z,55.13
2018-10-19T12:18:33.259Z,60.10
2018-10-19T12:21:01.168Z,60.27
2018-10-19T12:23:28.878Z,58.33
2018-10-19T12:25:56.642Z,58.07
2018-10-19T12:28:24.428Z,55.33
2018-10-19T12:30:52.178Z,57.03
2018-10-19T12:33:19.965Z,57.00
2018-10-19T12:35:47.774Z,56.10
2018-10-19T12:38:15.573Z,56.67
2018-10-19T12:40:43.360Z,57.23
2018-10-19T12:43:11.254Z,56.07
2018-10-19T12:46:48.337Z,54.57
2018-10-19T12:49:17.667Z,55.10
2018-10-19T12:51:45.443Z,54.87
2018-10-19T12:54:13.310Z,56.57
2018-10-19T12:56:41.151Z,55.10
2018-10-19T12:59:09.272Z,53.00
2018-10-19T13:01:37.113Z,54.73
2018-10-19T13:04:05.321Z,56.80
2018-10-19T13:06:33.182Z,55.27
2018-10-19T13:09:00.999Z,52.30
2018-10-19T13:11:28.896Z,53.17
2018-10-19T13:13:56.709Z,53.03
2018-10-19T13:16:24.566Z,54.20
2018-10-19T13:18:52.647Z,54.57
2018-10-19T13:21:20.446Z,55.53
2018-10-19T13:23:48.275Z,54.10
2018-10-19T13:26:16.934Z,54.87
2018-10-19T13:28:44.701Z,51.80
2018-10-19T13:31:12.491Z,53.80
2018-10-19T13:33:40.308Z,55.20
2018-10-19T13:36:08.115Z,54.08
2018-10-19T13:38:35.998Z,52.23
2018-10-19T13:41:03.849Z,55.43
2018-10-19T13:43:31.670Z,53.92
2018-10-19T13:45:59.562Z,56.28
2018-10-19T13:48:27.284Z,54.98
2018-10-19T13:50:55.145Z,54.23
2018-10-19T13:53:22.898Z,52.48
2018-10-19T13:55:50.689Z,54.55
2018-10-19T13:58:18.550Z,53.45
2018-10-19T14:00:46.302Z,53.70
2018-10-19T14:03:14.461Z,54.30
2018-10-19T14:05:42.427Z,53.55
2018-10-19T14:08:10.069Z,56.35
2018-10-19T14:10:37.945Z,55.65
2018-10-19T14:13:06.176Z,55.23
2018-10-19T14:15:34.147Z,55.95
2018-10-19T14:18:02.106Z,57.58
2018-10-19T14:20:29.948Z,57.00
2018-10-19T14:22:57.899Z,56.83
2018-10-19T14:25:25.740Z,57.30
2018-10-19T14:27:53.613Z,58.52
2018-10-19T14:30:21.449Z,58.40
2018-10-19T14:32:49.253Z,60.30
2018-10-19T14:35:17.143Z,58.40
2018-10-19T14:37:45.529Z,128.33
2018-10-19T14:40:14.624Z,63.03
2018-10-19T14:42:42.997Z,58.63
2018-10-19T14:45:12.127Z,59.90
2018-10-19T14:47:40.806Z,57.43
2018-10-19T14:50:10.062Z,60.90
2018-10-19T14:52:38.079Z,57.17
2018-10-19T14:55:07.925Z,56.73
2018-10-19T14:57:36.072Z,57.67
2018-10-19T15:00:04.543Z,59.40
2018-10-19T15:02:32.322Z,67.53
2018-10-19T15:05:00.141Z,60.00
2018-10-19T15:07:27.946Z,62.50
2018-10-19T15:09:55.823Z,74.90
2018-10-19T15:12:23.497Z,62.70
2018-10-19T15:14:51.313Z,76.50
2018-10-19T15:17:19.094Z,61.30
2018-10-19T15:19:46.909Z,89.77
2018-10-19T15:22:14.707Z,100.20
2018-10-19T15:24:42.525Z,67.57
2018-10-19T15:27:10.352Z,62.43
2018-10-19T15:29:38.270Z,60.90
2018-10-19T15:32:06.130Z,60.83
2018-10-19T15:34:34.006Z,60.90
2018-10-19T15:37:01.809Z,65.70
2018-10-19T15:39:29.584Z,64.47
2018-10-19T15:41:58.696Z,65.40
2018-10-19T15:44:26.512Z,63.50
2018-10-19T15:46:57.898Z,65.60
2018-10-19T15:49:26.021Z,65.20
2018-10-19T15:51:54.089Z,67.37
2018-10-19T15:54:21.988Z,70.77
2018-10-19T15:56:49.874Z,66.83
2018-10-19T15:59:17.675Z,70.27
2018-10-19T16:01:45.490Z,72.27
2018-10-19T16:04:13.573Z,71.97
2018-10-19T16:06:41.504Z,73.13
2018-10-19T16:09:10.912Z,73.97
2018-10-19T16:11:38.717Z,74.60
2018-10-19T16:14:06.676Z,80.80
2018-10-19T16:16:34.657Z,81.13
2018-10-19T16:19:03.168Z,76.03
2018-10-19T16:21:31.244Z,76.47
2018-10-19T16:24:00.012Z,78.07
2018-10-19T16:26:27.809Z,83.90
2018-10-19T16:28:55.597Z,81.67
2018-10-19T16:31:23.645Z,87.10
2018-10-19T16:33:51.424Z,85.53
2018-10-19T16:36:19.413Z,82.80
2018-10-19T16:38:47.217Z,88.00
2018-10-19T16:41:15.017Z,95.87
2018-10-19T16:43:42.789Z,98.80
2018-10-19T16:46:11.192Z,95.83
2018-10-19T16:48:39.037Z,93.20
2018-10-19T16:51:07.149Z,98.03
2018-10-19T16:53:35.185Z,91.43
2018-10-19T16:56:02.971Z,94.83
2018-10-19T16:58:30.805Z,89.53
2018-10-19T17:00:58.617Z,97.87
2018-10-19T17:03:26.429Z,92.20
2018-10-19T17:05:54.262Z,94.30
2018-10-19T17:08:22.076Z,92.67
2018-10-19T17:10:49.885Z,92.50
2018-10-19T17:13:18.292Z,93.67
2018-10-19T17:15:46.109Z,96.47
2018-10-19T17:18:15.076Z,94.90
2018-10-19T17:20:42.857Z,105.17
2018-10-19T17:23:10.752Z,109.80
2018-10-19T17:25:38.696Z,111.43
2018-10-19T17:28:06.644Z,101.83
2018-10-19T17:30:34.613Z,107.50
2018-10-19T17:33:02.447Z,98.73
2018-10-19T17:35:30.285Z,97.87
2018-10-19T17:37:58.097Z,99.87
2018-10-19T17:40:25.965Z,98.13
2018-10-19T17:42:53.881Z,103.17
2018-10-19T17:45:21.663Z,111.57
2018-10-19T17:47:49.508Z,106.23
2018-10-19T17:50:17.306Z,105.17
2018-10-19T17:52:45.165Z,101.27
2018-10-19T17:55:13.022Z,101.60
2018-10-19T17:57:40.902Z,98.77
2018-10-19T18:00:10.799Z,97.23
2018-10-19T18:02:38.718Z,89.50
2018-10-19T18:05:07.315Z,94.90
2018-10-19T18:07:36.496Z,91.27
2018-10-19T18:10:05.553Z,94.07
2018-10-19T18:12:34.307Z,95.17
2018-10-19T18:15:02.171Z,90.20
2018-10-19T18:17:29.957Z,91.30
2018-10-19T18:19:57.789Z,94.37
2018-10-19T18:22:25.747Z,95.17
2018-10-19T18:24:53.441Z,89.53
2018-10-19T18:27:21.260Z,90.57
2018-10-19T18:29:49.068Z,94.30
2018-10-19T18:32:16.984Z,89.27
2018-10-19T18:34:44.806Z,93.33
2018-10-19T18:37:12.685Z,89.93
2018-10-19T18:39:40.812Z,86.07
2018-10-19T18:42:08.667Z,91.57
2018-10-19T18:44:36.678Z,89.27
2018-10-19T18:47:04.711Z,86.40
2018-10-19T18:49:32.481Z,83.67
2018-10-19T18:52:00.329Z,93.83
2018-10-19T18:54:28.221Z,93.70
2018-10-19T18:56:56.046Z,88.27
2018-10-19T18:59:23.975Z,91.63
2018-10-19T19:01:51.848Z,87.97
2018-10-19T19:04:19.689Z,95.20
2018-10-19T19:06:47.523Z,94.40
2018-10-19T19:09:15.361Z,92.40
2018-10-19T19:11:43.238Z,94.87
2018-10-19T19:14:11.122Z,88.27
2018-10-19T19:16:39.059Z,89.00
2018-10-19T19:19:07.133Z,89.10
2018-10-19T19:21:35.368Z,94.20
2018-10-19T19:24:08.669Z,91.93
2018-10-19T19:26:36.630Z,96.60
2018-10-19T19:29:04.592Z,93.73
2018-10-19T19:31:32.427Z,91.87
2018-10-19T19:34:05.746Z,93.53
2018-10-19T19:36:33.632Z,91.83
2018-10-19T19:39:01.528Z,93.67
2018-10-19T19:41:34.807Z,89.63
2018-10-19T19:44:02.975Z,89.70
2018-10-19T19:46:30.917Z,96.80
2018-10-19T19:49:36.515Z,89.03
2018-10-19T19:52:04.420Z,95.07
2018-10-19T19:54:32.337Z,97.13
2018-10-19T19:57:00.161Z,85.63
2018-10-19T19:59:27.949Z,89.97
2018-10-19T20:01:55.783Z,94.93
2018-10-19T20:04:23.854Z,86.83
2018-10-19T20:06:51.634Z,84.23
2018-10-19T20:09:19.562Z,82.33
2018-10-19T20:11:47.350Z,83.27
2018-10-19T20:14:15.210Z,85.03
2018-10-19T20:16:43.036Z,83.67
2018-10-19T20:19:10.966Z,83.67
2018-10-19T20:21:38.803Z,83.93
2018-10-19T20:24:06.780Z,86.20
2018-10-19T20:26:34.646Z,79.63
2018-10-19T20:29:02.522Z,82.33
2018-10-19T20:31:30.336Z,85.73
2018-10-19T20:33:58.199Z,84.47
2018-10-19T20:36:26.178Z,86.53
2018-10-19T20:38:53.993Z,84.77
2018-10-19T20:41:22.082Z,90.97
2018-10-19T20:43:50.202Z,88.40
2018-10-19T20:46:18.039Z,86.83
2018-10-19T20:48:45.917Z,84.47
2018-10-19T20:51:13.757Z,87.20
2018-10-19T20:53:41.665Z,89.70
2018-10-19T20:56:09.615Z,84.33
2018-10-19T20:58:37.457Z,80.73
2018-10-19T21:01:05.412Z,86.63
2018-10-19T21:03:33.216Z,85.27
2018-10-19T21:06:02.104Z,80.37
2018-10-19T21:08:30.277Z,84.00
2018-10-19T21:10:58.141Z,81.67
2018-10-19T21:13:26.019Z,87.93
2018-10-19T21:15:53.792Z,82.47
2018-10-19T21:18:21.611Z,86.30
2018-10-19T21:20:52.175Z,84.83
2018-10-19T21:23:19.949Z,82.80
2018-10-19T21:25:47.805Z,85.67
2018-10-19T21:28:15.601Z,85.37
2018-10-19T21:30:43.856Z,84.13
2018-10-19T21:33:11.673Z,88.70
2018-10-19T21:35:39.601Z,93.13
2018-10-19T21:38:07.657Z,85.43
2018-10-19T21:40:35.553Z,84.60
2018-10-19T21:43:03.405Z,87.47
2018-10-19T21:45:31.229Z,85.83
2018-10-19T21:47:59.052Z,82.47
2018-10-19T21:50:26.922Z,85.20
2018-10-19T21:52:54.757Z,88.07
2018-10-19T21:55:23.144Z,83.57
2018-10-19T21:57:51.050Z,83.87
2018-10-19T22:00:18.912Z,83.97
2018-10-19T22:02:47.134Z,84.20
2018-10-19T22:05:15.054Z,82.80
2018-10-19T22:07:42.985Z,87.50
2018-10-19T22:10:10.866Z,87.63
2018-10-19T22:12:38.934Z,83.67
2018-10-19T22:15:07.532Z,81.97
2018-10-19T22:17:35.537Z,80.40
2018-10-19T22:20:03.741Z,81.53
2018-10-19T22:22:32.306Z,82.37
2018-10-19T22:25:00.514Z,86.27
2018-10-19T22:27:29.102Z,84.03
2018-10-19T22:29:56.992Z,88.77
2018-10-19T22:32:24.846Z,88.27
2018-10-19T22:34:52.691Z,86.80
2018-10-19T22:37:28.186Z,80.70
2018-10-19T22:39:58.129Z,85.50
2018-10-19T22:42:26.059Z,87.47
2018-10-19T22:44:54.239Z,87.50
2018-10-19T22:47:22.385Z,83.97
2018-10-19T22:49:51.322Z,89.50
2018-10-19T22:52:20.599Z,82.43
2018-10-19T22:54:49.064Z,84.50
2018-10-19T22:57:17.449Z,82.47
2018-10-19T22:59:45.638Z,82.10
2018-10-19T23:02:13.714Z,86.00
2018-10-19T23:04:41.790Z,80.07
2018-10-19T23:07:10.286Z,83.17
2018-10-19T23:09:38.236Z,79.17
2018-10-19T23:12:06.128Z,78.57
2018-10-19T23:14:34.081Z,81.83
2018-10-19T23:17:02.028Z,79.30
2018-10-19T23:19:29.858Z,81.40
2018-10-19T23:21:57.718Z,81.00
2018-10-19T23:24:25.569Z,76.90
2018-10-19T23:26:53.445Z,81.00
2018-10-19T23:29:21.295Z,82.20
2018-10-19T23:31:49.153Z,82.30
2018-10-19T23:34:17.050Z,79.77
2018-10-19T23:36:44.924Z,80.67
2018-10-19T23:39:12.909Z,79.50
2018-10-19T23:41:43.089Z,87.80
2018-10-19T23:44:11.054Z,85.23
2018-10-19T23:46:39.450Z,86.00
2018-10-19T23:49:07.926Z,83.93
2018-10-19T23:51:35.769Z,85.80
2018-10-19T23:54:03.662Z,92.90
2018-10-19T23:56:31.477Z,93.33
2018-10-19T23:58:59.358Z,90.50
